Time;durP1;ratioP1;P1;durP2;ratioP2;P2;SDS_P1;SDS_P2;PMS_P1;PMS_P2;Temp;Humidity;BMP_temperature;BMP_pressure;BME280_temperature;BME280_humidity;BME280_pressure;Samples;Min_cycle;Max_cycle;Signal;HPM_P1;HPM_P2
2021/04/11 00:00:11;;;;;;;41.13;24.10;;;;;;;19.57;19.93;95041.25;5076276;28;20056;-45
2021/04/11 00:02:38;;;;;;;44.60;24.55;;;;;;;19.15;21.50;95045.00;5076074;28;20773;-40
2021/04/11 00:05:06;;;;;;;46.25;25.67;;;;;;;18.57;21.47;95043.94;5076322;28;20056;-39
2021/04/11 00:07:34;;;;;;;44.28;23.90;;;;;;;18.82;21.13;95034.34;5093213;28;20054;-40
2021/04/11 00:10:01;;;;;;;37.67;23.00;;;;;;;19.06;20.84;95035.25;5096311;28;20450;-39
2021/04/11 00:12:29;;;;;;;40.67;24.25;;;;;;;18.60;21.31;95036.13;5088237;28;20059;-40
2021/04/11 00:14:56;;;;;;;41.53;23.88;;;;;;;18.55;21.46;95035.56;5076038;28;20048;-40
2021/04/11 00:17:23;;;;;;;39.17;22.00;;;;;;;18.26;22.02;95034.44;5075938;28;20048;-39
2021/04/11 00:19:50;;;;;;;46.67;23.05;;;;;;;18.12;21.85;95039.16;5075569;28;20052;-39
2021/04/11 00:22:17;;;;;;;34.83;21.55;;;;;;;18.41;21.28;95036.53;5087966;28;20363;-40
2021/04/11 00:24:44;;;;;;;41.20;23.05;;;;;;;18.35;21.54;95035.16;5075887;28;20053;-40
2021/04/11 00:27:17;;;;;;;41.45;22.50;;;;;;;18.09;22.00;95045.09;5082798;28;20048;-40
2021/04/11 00:29:44;;;;;;;37.13;22.90;;;;;;;18.19;21.92;95045.50;5095735;28;20054;-39
2021/04/11 00:32:13;;;;;;;39.20;22.92;;;;;;;18.17;22.03;95041.63;5090680;28;20056;-43
2021/04/11 00:34:40;;;;;;;36.42;22.85;;;;;;;18.51;21.40;95040.72;5092875;28;20051;-40
2021/04/11 00:37:07;;;;;;;35.00;22.25;;;;;;;18.77;21.01;95043.25;5094773;28;20048;-41
2021/04/11 00:39:35;;;;;;;39.78;23.55;;;;;;;18.36;21.38;95044.66;5095446;28;20043;-40
2021/04/11 00:42:10;;;;;;;44.72;25.15;;;;;;;17.80;21.88;95036.00;5091834;28;20459;-41
2021/04/11 00:44:37;;;;;;;39.30;23.55;;;;;;;18.29;21.51;95039.09;5057839;28;20052;-40
2021/04/11 00:47:05;;;;;;;38.65;23.05;;;;;;;18.47;21.25;95037.91;5092525;28;20051;-41
2021/04/11 00:49:46;;;;;;;38.55;23.50;;;;;;;18.33;21.65;95040.00;5077887;28;20082;-52
2021/04/11 00:52:14;;;;;;;36.22;22.88;;;;;;;18.56;21.27;95042.41;5077467;28;20048;-41
2021/04/11 00:54:43;;;;;;;35.92;22.48;;;;;;;19.08;20.76;95045.53;5057859;28;20063;-41
2021/04/11 00:57:12;;;;;;;33.45;22.10;;;;;;;19.07;20.62;95042.09;5075434;28;20056;-40
2021/04/11 00:59:39;;;;;;;39.90;23.95;;;;;;;18.40;21.73;95044.78;5057580;28;20053;-41
2021/04/11 01:02:07;;;;;;;39.83;24.10;;;;;;;18.27;21.80;95051.88;5040834;28;20056;-45
2021/04/11 01:04:36;;;;;;;41.65;24.20;;;;;;;18.61;21.29;95052.81;5057700;28;20060;-41
2021/04/11 01:07:09;;;;;;;43.88;25.55;;;;;;;18.44;21.42;95056.31;5075080;28;20052;-41
2021/04/11 01:09:40;;;;;;;42.67;25.20;;;;;;;18.92;20.71;95052.47;5041228;28;20047;-43
2021/04/11 01:12:10;;;;;;;43.28;24.67;;;;;;;19.10;20.14;95046.75;5041056;28;20469;-41
2021/04/11 01:14:39;;;;;;;46.67;26.52;;;;;;;18.92;20.59;95044.53;5057725;28;20049;-40
2021/04/11 01:17:12;;;;;;;48.88;24.70;;;;;;;18.74;20.72;95042.03;5057662;28;20052;-42
2021/04/11 01:19:43;;;;;;;42.55;22.70;;;;;;;18.75;20.67;95038.28;5057813;28;20044;-40
2021/04/11 01:22:30;;;;;;;39.25;22.27;;;;;;;19.01;20.56;95046.06;5087953;28;20061;-42
2021/04/11 01:25:03;;;;;;;33.53;19.75;;;;;;;18.98;20.22;95045.91;5057617;28;20071;-41
2021/04/11 01:27:33;;;;;;;34.58;20.20;;;;;;;19.04;20.30;95048.06;5073770;28;20047;-42
2021/04/11 01:30:12;;;;;;;28.95;17.88;;;;;;;19.07;20.09;95046.63;5061048;28;20048;-40
2021/04/11 01:32:42;;;;;;;25.27;16.38;;;;;;;19.17;19.59;95045.44;5070496;28;20041;-42
2021/04/11 01:35:11;;;;;;;23.48;15.63;;;;;;;19.17;19.42;95045.44;5056924;28;20083;-41
2021/04/11 01:37:38;;;;;;;22.17;15.05;;;;;;;19.16;19.50;95049.19;5057057;28;20048;-40
2021/04/11 01:40:09;;;;;;;23.23;14.10;;;;;;;19.32;19.14;95050.19;5075084;28;20083;-40
2021/04/11 01:42:36;;;;;;;25.08;15.55;;;;;;;19.10;19.92;95057.34;5057397;28;20052;-39
2021/04/11 01:45:05;;;;;;;26.20;15.88;;;;;;;18.74;20.29;95049.97;5061640;28;20060;-40
2021/04/11 01:47:32;;;;;;;35.65;19.20;;;;;;;18.85;20.49;95050.34;5061239;28;20059;-45
2021/04/11 01:50:00;;;;;;;40.60;21.98;;;;;;;18.14;21.14;95053.63;5050513;28;20052;-39
2021/04/11 01:52:32;;;;;;;36.83;20.73;;;;;;;18.39;20.67;95059.91;5061146;28;20044;-40
2021/04/11 01:54:59;;;;;;;33.45;20.17;;;;;;;18.72;19.94;95061.94;5061330;28;20063;-41
2021/04/11 01:57:33;;;;;;;42.45;28.58;;;;;;;18.20;20.93;95062.16;5077720;28;20040;-41
2021/04/11 02:00:24;;;;;;;53.35;37.60;;;;;;;17.88;21.15;95069.56;5045498;28;20474;-40
2021/04/11 02:02:57;;;;;;;23.23;17.38;;;;;;;18.01;21.04;95069.69;5078434;28;20050;-41
2021/04/11 02:05:26;;;;;;;25.40;16.70;;;;;;;17.84;21.47;95075.81;5061163;28;20060;-40
2021/04/11 02:07:55;;;;;;;24.92;15.80;;;;;;;18.28;20.80;95064.00;5078486;28;20056;-39
2021/04/11 02:10:30;;;;;;;22.45;15.77;;;;;;;18.06;21.33;95056.31;5060870;28;20064;-40
2021/04/11 02:13:18;;;;;;;25.48;15.77;;;;;;;18.18;21.03;95049.25;5065587;28;20362;-40
2021/04/11 02:15:50;;;;;;;25.70;16.75;;;;;;;18.07;21.42;95049.91;5044163;28;20056;-40
2021/04/11 02:18:19;;;;;;;23.20;16.30;;;;;;;17.95;21.50;95052.44;5078315;28;20048;-40
2021/04/11 02:20:48;;;;;;;23.70;15.98;;;;;;;18.13;21.17;95041.47;5065800;28;20050;-40
2021/04/11 02:23:19;;;;;;;24.05;16.45;;;;;;;17.94;21.63;95054.28;5054036;28;20071;-40
2021/04/11 02:25:48;;;;;;;25.42;17.50;;;;;;;18.29;20.78;95054.97;5060518;28;20052;-40
2021/04/11 02:28:18;;;;;;;25.13;15.48;;;;;;;18.56;20.26;95045.03;5059804;28;20489;-40
2021/04/11 02:30:49;;;;;;;27.88;18.67;;;;;;;18.74;19.97;95043.88;5098347;28;20055;-40
2021/04/11 02:33:19;;;;;;;31.00;18.67;;;;;;;18.80;20.15;95042.59;5087972;28;20055;-41
2021/04/11 02:35:47;;;;;;;42.00;25.42;;;;;;;18.19;21.09;95031.50;5060326;28;20071;-39
2021/04/11 02:38:15;;;;;;;46.25;26.70;;;;;;;18.60;20.62;95054.66;5077865;28;20048;-40
2021/04/11 02:40:52;;;;;;;36.10;22.98;;;;;;;18.16;21.67;95037.41;5059814;28;20064;-40
2021/04/11 02:43:26;;;;;;;40.63;24.35;;;;;;;17.55;22.38;95042.06;5069242;28;20059;-39
2021/04/11 02:45:53;;;;;;;38.88;22.95;;;;;;;17.08;22.89;95043.78;5080181;28;20060;-40
2021/04/11 02:48:21;;;;;;;35.95;22.52;;;;;;;17.51;22.20;95038.50;5098128;28;20044;-40
2021/04/11 02:51:09;;;;;;;35.47;20.27;;;;;;;17.58;21.91;95044.09;5097321;28;20056;-40
2021/04/11 02:53:41;;;;;;;29.90;19.33;;;;;;;17.62;21.65;95042.38;5079604;28;20048;-39
2021/04/11 02:56:16;;;;;;;30.65;19.48;;;;;;;17.62;21.77;95031.00;5063473;28;20058;-40
2021/04/11 02:58:46;;;;;;;27.30;18.63;;;;;;;17.97;21.03;95045.75;5080153;28;20044;-41
2021/04/11 03:01:15;;;;;;;32.25;19.42;;;;;;;18.37;20.85;95046.22;5063388;28;20059;-40
2021/04/11 03:03:44;;;;;;;29.00;18.55;;;;;;;17.81;21.71;95048.13;5050279;28;20052;-40
2021/04/11 03:06:20;;;;;;;30.08;17.67;;;;;;;17.65;21.81;95047.03;5060166;28;20048;-40
2021/04/11 03:08:53;;;;;;;28.52;17.48;;;;;;;17.80;21.36;95046.56;5059842;28;20036;-40
2021/04/11 03:11:30;;;;;;;27.05;18.25;;;;;;;17.78;21.38;95051.41;5060517;28;20060;-41
2021/04/11 03:13:59;;;;;;;27.67;15.80;;;;;;;17.59;21.88;95043.00;5059398;28;20052;-41
2021/04/11 03:16:27;;;;;;;26.30;17.52;;;;;;;17.78;21.53;95051.41;5077306;28;20064;-40
2021/04/11 03:18:56;;;;;;;26.13;16.20;;;;;;;17.98;21.08;95049.19;5058935;28;20379;-40
2021/04/11 03:21:25;;;;;;;25.55;17.10;;;;;;;17.91;21.12;95054.16;5087457;28;20052;-47
2021/04/11 03:23:53;;;;;;;25.85;17.33;;;;;;;18.00;21.05;95060.22;5066245;28;20044;-40
2021/04/11 03:26:47;;;;;;;25.42;15.80;;;;;;;18.62;20.31;95057.00;5043624;28;20458;-39
2021/04/11 03:29:30;;;;;;;24.27;14.98;;;;;;;18.01;20.94;95059.91;5060039;28;20052;-40
2021/04/11 03:32:11;;;;;;;21.67;14.13;;;;;;;18.25;20.68;95064.66;5058824;28;20505;-40
2021/04/11 03:34:44;;;;;;;22.88;13.45;;;;;;;18.18;20.51;95053.75;5064594;28;20049;-40
2021/04/11 03:37:13;;;;;;;24.52;15.90;;;;;;;18.17;21.09;95057.50;5059128;28;20051;-40
2021/04/11 03:39:40;;;;;;;22.25;14.23;;;;;;;17.20;22.35;95052.69;5079006;28;20354;-41
2021/04/11 03:42:10;;;;;;;21.48;13.43;;;;;;;16.67;23.31;95049.50;5062821;28;20068;-40
2021/04/11 03:44:41;;;;;;;21.48;13.52;;;;;;;17.50;22.10;95061.53;5043447;28;20462;-40
2021/04/11 03:47:15;;;;;;;24.00;14.45;;;;;;;17.54;21.97;95059.03;5042498;28;20067;-40
2021/04/11 03:50:02;;;;;;;22.40;14.52;;;;;;;16.77;23.40;95065.03;5059484;28;20052;-40
2021/04/11 03:53:13;;;;;;;20.20;14.10;;;;;;;17.09;22.79;95071.75;5078066;28;20048;-40
2021/04/11 03:55:47;;;;;;;21.83;14.73;;;;;;;16.83;23.43;95072.50;5061720;28;20056;-40
2021/04/11 03:58:28;;;;;;;23.42;14.43;;;;;;;17.03;23.13;95084.34;5075612;28;20462;-41
2021/04/11 04:01:04;;;;;;;25.17;14.52;;;;;;;17.06;22.88;95094.28;5057316;28;20052;-43
2021/04/11 04:03:36;;;;;;;22.90;15.48;;;;;;;17.62;22.08;95097.88;5062300;28;20078;-40
2021/04/11 04:06:07;;;;;;;28.95;15.43;;;;;;;16.85;22.80;95109.16;5077059;28;20058;-40
2021/04/11 04:08:35;;;;;;;22.48;14.60;;;;;;;17.17;22.37;95107.97;5058151;28;20455;-41
2021/04/11 04:11:41;;;;;;;25.02;15.43;;;;;;;16.78;22.61;95108.84;5058415;28;20064;-40
2021/04/11 04:14:36;;;;;;;23.50;14.70;;;;;;;17.09;22.38;95109.53;5068763;28;20040;-41
2021/04/11 04:17:39;;;;;;;23.70;14.70;;;;;;;17.27;22.18;95102.41;5076241;28;20052;-39
2021/04/11 04:20:17;;;;;;;20.03;13.83;;;;;;;17.66;21.71;95112.03;5057893;28;20056;-40
2021/04/11 04:23:38;;;;;;;21.10;13.63;;;;;;;17.57;21.44;95111.28;5076599;28;20054;-40
2021/04/11 04:26:36;;;;;;;17.92;13.05;;;;;;;17.64;21.58;95116.84;5078233;28;20059;-44
2021/04/11 04:29:14;;;;;;;17.95;13.00;;;;;;;18.24;20.75;95115.25;5078383;28;20040;-41
2021/04/11 04:32:08;;;;;;;20.60;12.55;;;;;;;18.21;21.46;95119.28;5077997;28;20060;-40
2021/04/11 04:35:06;;;;;;;19.88;13.93;;;;;;;18.00;22.28;95126.34;5078345;28;20358;-40
2021/04/11 04:37:57;;;;;;;29.75;14.60;;;;;;;17.69;22.93;95121.22;5040130;28;20047;-49
2021/04/11 04:40:39;;;;;;;18.85;14.35;;;;;;;17.87;22.75;95118.25;5078544;28;20060;-40
2021/04/11 04:43:22;;;;;;;23.23;14.57;;;;;;;17.91;22.68;95112.34;5095915;28;20051;-39
2021/04/11 04:46:01;;;;;;;21.80;15.02;;;;;;;17.92;22.41;95108.59;5096076;28;20053;-39
2021/04/11 04:48:43;;;;;;;24.75;16.45;;;;;;;18.38;21.54;95116.59;5077675;28;20044;-40
2021/04/11 04:51:27;;;;;;;19.77;15.23;;;;;;;18.41;21.97;95121.25;5077306;28;20063;-40
2021/04/11 04:54:19;;;;;;;22.90;15.25;;;;;;;19.04;20.86;95122.25;5061680;28;20048;-40
2021/04/11 04:56:54;;;;;;;25.08;17.48;;;;;;;18.95;20.95;95129.44;5095598;28;20048;-40
2021/04/11 04:59:25;;;;;;;24.67;17.38;;;;;;;19.21;20.56;95117.91;5061466;28;20044;-40
2021/04/11 05:02:06;;;;;;;26.25;16.63;;;;;;;19.00;20.80;95126.63;5078473;28;20052;-40
2021/04/11 05:04:50;;;;;;;26.52;16.60;;;;;;;19.25;20.72;95132.06;5061739;28;20051;-41
2021/04/11 05:07:22;;;;;;;22.45;15.73;;;;;;;19.28;20.52;95132.22;5074116;28;20048;-41
2021/04/11 05:10:03;;;;;;;24.17;15.50;;;;;;;19.57;20.27;95143.91;5041176;28;20053;-40
2021/04/11 05:13:22;;;;;;;21.27;15.25;;;;;;;19.87;20.35;95147.25;5043394;28;20048;-40
2021/04/11 05:16:00;;;;;;;23.95;15.50;;;;;;;19.95;20.49;95141.06;5075115;28;20067;-41
2021/04/11 05:18:40;;;;;;;22.20;15.00;;;;;;;19.91;19.96;95148.91;5042114;28;20056;-42
2021/04/11 05:21:25;;;;;;;24.92;14.82;;;;;;;20.07;19.63;95143.78;5068909;28;20044;-41
2021/04/11 05:24:01;;;;;;;23.33;14.52;;;;;;;20.66;19.34;95146.16;5057238;28;20044;-41
2021/04/11 05:26:42;;;;;;;19.63;14.27;;;;;;;20.36;20.34;95142.09;5057495;28;20052;-44
2021/04/11 05:29:24;;;;;;;20.98;14.25;;;;;;;20.44;20.64;95143.91;5057164;28;20055;-40
2021/04/11 05:31:52;;;;;;;18.85;11.80;;;;;;;20.39;19.06;95146.75;5057323;28;20052;-40
2021/04/11 05:34:20;;;;;;;19.05;11.52;;;;;;;20.63;19.21;95144.16;5077753;28;20059;-40
2021/04/11 05:36:56;;;;;;;14.57;10.52;;;;;;;20.82;18.91;95148.94;5074872;28;20044;-40
2021/04/11 05:39:50;;;;;;;16.30;10.02;;;;;;;20.94;18.62;95146.28;5057465;28;20055;-41
2021/04/11 05:42:19;;;;;;;;;;;;;;;20.98;19.38;95157.00;5057429;28;20087;-40
2021/04/11 05:44:54;;;;;;;13.15;8.98;;;;;;;20.81;19.59;95147.34;5056772;28;19920;-46
2021/04/11 05:47:40;;;;;;;14.93;9.30;;;;;;;21.26;17.99;95157.91;5057333;28;20044;-42
2021/04/11 05:50:16;;;;;;;11.45;9.30;;;;;;;21.05;19.00;95152.69;5094021;28;20078;-50
2021/04/11 05:52:49;;;;;;;13.25;9.93;;;;;;;21.45;18.64;95144.81;5056985;28;20060;-40
2021/04/11 05:55:18;;;;;;;13.75;9.90;;;;;;;21.41;18.75;95141.28;5074715;28;20045;-42
2021/04/11 05:57:48;;;;;;;13.98;10.25;;;;;;;21.46;17.87;95143.69;5057253;28;20048;-42
2021/04/11 06:00:26;;;;;;;14.27;10.73;;;;;;;21.88;18.22;95146.00;5056953;28;20059;-46
2021/04/11 06:02:57;;;;;;;13.43;10.25;;;;;;;21.81;17.93;95135.16;5056944;28;20057;-46
2021/04/11 06:05:45;;;;;;;18.65;9.90;;;;;;;21.93;18.39;95143.09;5074342;28;20835;-42
2021/04/11 06:08:50;;;;;;;13.80;9.18;;;;;;;21.52;19.04;95129.03;5074832;28;20048;-40
2021/04/11 06:11:22;;;;;;;13.98;9.82;;;;;;;21.84;19.04;95129.16;5012488;28;20053;-41
2021/04/11 06:14:20;;;;;;;14.45;9.75;;;;;;;21.93;18.65;95142.34;5067459;28;20051;-41
2021/04/11 06:16:48;;;;;;;13.52;10.05;;;;;;;22.41;17.98;95126.16;5095074;28;20063;-41
2021/04/11 06:19:15;;;;;;;12.75;9.57;;;;;;;22.44;18.59;95133.44;5076697;28;20044;-40
2021/04/11 06:21:46;;;;;;;12.02;9.40;;;;;;;22.44;18.51;95136.09;5063410;28;20131;-40
2021/04/11 06:24:35;;;;;;;15.80;10.45;;;;;;;22.58;18.21;95135.66;5084693;28;20070;-42
2021/04/11 06:27:11;;;;;;;12.35;9.65;;;;;;;22.86;17.71;95129.50;5094639;28;20056;-60
2021/04/11 06:30:16;;;;;;;12.57;10.02;;;;;;;22.98;17.50;95126.75;5094834;28;20366;-39
2021/04/11 06:33:12;;;;;;;12.40;9.93;;;;;;;23.33;17.19;95127.53;5034958;28;20046;-44
2021/04/11 06:35:46;;;;;;;12.18;9.23;;;;;;;23.51;17.42;95132.47;5064800;28;20040;-43
2021/04/11 06:38:20;;;;;;;11.10;9.05;;;;;;;23.70;17.32;95124.53;5056799;28;20048;-44
2021/04/11 06:41:04;;;;;;;15.38;9.52;;;;;;;23.52;17.85;95134.03;5056871;28;20049;-44
2021/04/11 06:44:10;;;;;;;13.35;9.45;;;;;;;23.81;17.36;95136.19;5057492;28;20044;-44
2021/04/11 06:47:26;;;;;;;13.70;9.50;;;;;;;23.84;16.78;95135.47;4991398;28;20046;-43
2021/04/11 06:50:23;;;;;;;11.40;9.07;;;;;;;23.91;16.92;95140.94;5063032;28;20064;-45
2021/04/11 06:52:59;;;;;;;12.48;8.02;;;;;;;24.34;16.68;95147.13;5077617;28;20048;-40
2021/04/11 06:55:37;;;;;;;14.82;8.20;;;;;;;24.27;16.68;95147.75;5055945;28;20490;-39
2021/04/11 06:58:26;;;;;;;11.32;8.35;;;;;;;24.40;16.13;95134.25;5069006;28;20048;-47
2021/04/11 07:01:06;;;;;;;12.13;7.65;;;;;;;24.78;16.28;95142.16;5077618;28;20056;-46
2021/04/11 07:04:01;;;;;;;11.15;8.20;;;;;;;24.92;16.42;95145.03;5074490;28;20359;-45
2021/04/11 07:07:01;;;;;;;10.20;7.57;;;;;;;25.03;15.76;95142.56;5077483;28;20060;-44
2021/04/11 07:10:04;;;;;;;11.50;7.75;;;;;;;25.03;15.25;95145.25;5077109;28;20044;-45
2021/04/11 07:12:52;;;;;;;13.00;7.67;;;;;;;25.37;15.12;95145.34;5054527;28;20071;-43
2021/04/11 07:15:34;;;;;;;10.07;7.47;;;;;;;25.27;15.22;95148.66;5059029;28;20053;-42
2021/04/11 07:18:19;;;;;;;16.83;9.77;;;;;;;25.40;15.62;95140.03;5056281;28;20041;-42
2021/04/11 07:20:55;;;;;;;12.88;8.40;;;;;;;25.47;14.92;95150.06;5062798;28;20051;-41
2021/04/11 07:23:45;;;;;;;11.45;8.52;;;;;;;25.70;15.18;95150.78;5075647;28;20371;-43
2021/04/11 07:26:25;;;;;;;15.32;8.77;;;;;;;26.01;14.30;95138.13;5071797;28;20040;-43
2021/04/11 07:29:28;;;;;;;10.10;8.35;;;;;;;26.09;14.90;95139.78;5076987;28;20469;-41
2021/04/11 07:32:02;;;;;;;14.13;8.82;;;;;;;26.98;15.79;95130.66;5025823;28;20052;-49
2021/04/11 07:35:06;;;;;;;18.75;9.93;;;;;;;30.82;11.77;95121.13;5074262;28;20362;-41
2021/04/11 07:37:52;;;;;;;18.20;7.65;;;;;;;32.22;10.80;95124.69;5070533;28;20048;-46
2021/04/11 07:40:47;;;;;;;69.18;45.20;;;;;;;32.12;10.51;95117.47;5096661;28;20366;-43
2021/04/11 07:43:36;;;;;;;65.65;41.17;;;;;;;32.12;10.99;95120.97;5096821;28;20055;-48
2021/04/11 07:46:28;;;;;;;86.82;50.33;;;;;;;32.90;10.84;95123.75;5097054;28;20047;-45
2021/04/11 07:49:22;;;;;;;52.78;29.40;;;;;;;32.99;10.29;95113.91;5096611;28;20052;-46
2021/04/11 07:52:14;;;;;;;21.20;12.32;;;;;;;33.93;9.74;95111.06;5064314;28;20056;-44
2021/04/11 07:54:59;;;;;;;17.05;10.93;;;;;;;32.56;9.89;95110.34;5070060;28;20044;-42
2021/04/11 07:58:02;;;;;;;17.25;10.55;;;;;;;31.99;10.39;95100.25;5096762;28;20055;-44
2021/04/11 08:01:14;;;;;;;15.35;10.00;;;;;;;31.70;10.44;95106.00;5038980;28;20044;-44
2021/04/11 08:04:02;;;;;;;18.55;9.55;;;;;;;31.78;10.70;95101.31;5058921;28;20067;-43
2021/04/11 08:07:00;;;;;;;14.90;9.75;;;;;;;32.39;10.75;95107.47;5096538;28;20058;-42
2021/04/11 08:09:34;;;;;;;19.48;10.70;;;;;;;31.56;10.56;95106.94;5096329;28;20048;-43
2021/04/11 08:12:19;;;;;;;13.82;10.68;;;;;;;32.46;10.50;95107.34;5096434;28;20086;-42
2021/04/11 08:15:04;;;;;;;17.02;10.32;;;;;;;32.65;10.14;95113.28;5084860;28;20048;-47
2021/04/11 08:18:07;;;;;;;14.57;9.85;;;;;;;32.42;10.22;95116.72;5076107;28;20474;-40
2021/04/11 08:20:41;;;;;;;15.85;10.32;;;;;;;33.70;9.75;95109.94;5036349;28;20125;-44
2021/04/11 08:23:29;;;;;;;13.63;10.10;;;;;;;31.39;9.83;95117.94;5096249;28;20062;-44
2021/04/11 08:26:23;;;;;;;14.23;9.73;;;;;;;33.44;9.42;95108.13;5079620;28;20052;-41
2021/04/11 08:29:14;;;;;;;21.48;11.02;;;;;;;32.71;9.81;95111.63;5075686;28;20040;-43
2021/04/11 08:32:08;;;;;;;13.52;10.25;;;;;;;29.72;11.64;95114.41;5068587;28;20056;-41
2021/04/11 08:35:10;;;;;;;17.02;10.15;;;;;;;32.27;10.22;95105.34;5083601;28;20055;-43
2021/04/11 08:37:51;;;;;;;12.65;9.43;;;;;;;32.30;10.59;95106.47;5057907;28;20048;-42
2021/04/11 08:40:21;;;;;;;14.20;9.07;;;;;;;31.90;10.59;95095.38;5093512;28;20283;-42
2021/04/11 08:42:54;;;;;;;13.65;10.02;;;;;;;33.56;8.88;95098.59;5095981;28;20459;-43
2021/04/11 08:45:54;;;;;;;17.15;10.50;;;;;;;31.58;10.49;95084.91;5079750;28;20063;-44
2021/04/11 08:48:53;;;;;;;15.18;10.40;;;;;;;32.55;9.69;95093.34;5075299;28;20048;-42
2021/04/11 08:51:47;;;;;;;15.50;9.93;;;;;;;31.62;10.39;95093.75;5054647;28;20098;-42
2021/04/11 08:54:35;;;;;;;13.98;10.32;;;;;;;31.32;10.49;95088.28;5089049;28;20048;-46
2021/04/11 08:57:38;;;;;;;12.90;10.23;;;;;;;31.87;10.39;95085.38;5075426;28;20362;-44
2021/04/11 09:00:10;;;;;;;13.30;10.07;;;;;;;33.22;9.07;95091.47;5075208;28;20048;-42
2021/04/11 09:03:08;;;;;;;12.52;9.70;;;;;;;31.00;10.37;95081.25;5075396;28;20048;-43
2021/04/11 09:06:05;;;;;;;16.00;9.60;;;;;;;31.97;9.59;95080.97;5075037;28;20386;-43
2021/04/11 09:08:37;;;;;;;13.38;10.43;;;;;;;32.36;9.76;95081.25;5057609;28;20051;-44
2021/04/11 09:11:28;;;;;;;12.82;9.75;;;;;;;30.93;11.20;95073.19;5057214;28;20067;-43
2021/04/11 09:13:58;;;;;;;12.88;9.73;;;;;;;30.89;11.35;95067.84;5074953;28;20055;-43
2021/04/11 09:17:02;;;;;;;14.68;9.82;;;;;;;31.07;11.09;95075.78;5057574;28;20363;-43
2021/04/11 09:19:46;;;;;;;14.75;10.70;;;;;;;31.47;10.91;95068.03;5075022;28;20044;-42
2021/04/11 09:22:40;;;;;;;15.00;11.07;;;;;;;31.26;11.33;95069.84;5092560;28;20052;-44
2021/04/11 09:25:29;;;;;;;16.38;10.50;;;;;;;31.55;11.16;95066.81;5082794;28;20060;-41
2021/04/11 09:28:30;;;;;;;14.10;9.85;;;;;;;31.40;11.42;95070.84;5057292;28;20448;-41
2021/04/11 09:31:35;;;;;;;13.73;9.65;;;;;;;31.97;10.68;95054.72;5074944;28;20052;-43
2021/04/11 09:34:40;;;;;;;12.43;9.27;;;;;;;32.24;9.70;95062.81;5074866;28;20048;-46
2021/04/11 09:37:23;;;;;;;12.77;8.30;;;;;;;31.55;10.14;95050.59;5074974;28;20052;-43
2021/04/11 09:40:03;;;;;;;12.32;9.10;;;;;;;31.86;10.00;95043.28;5073711;28;20053;-43
2021/04/11 09:42:57;;;;;;;12.77;8.23;;;;;;;31.45;10.56;95046.06;5075035;28;20056;-42
2021/04/11 09:45:27;;;;;;;11.75;8.75;;;;;;;31.72;10.66;95048.88;5074665;28;20048;-43
2021/04/11 09:48:12;;;;;;;11.48;8.20;;;;;;;33.05;9.26;95049.19;5081714;28;20067;-42
2021/04/11 09:50:49;;;;;;;12.55;8.85;;;;;;;31.21;10.48;95037.84;5092918;28;20040;-42
2021/04/11 09:53:44;;;;;;;12.75;8.70;;;;;;;32.51;10.24;95039.25;5074406;28;20045;-42
2021/04/11 09:56:36;;;;;;;11.70;7.93;;;;;;;31.63;9.29;95045.88;5057271;28;20040;-43
2021/04/11 09:59:09;;;;;;;24.07;8.90;;;;;;;31.84;9.76;95032.88;5074812;28;20041;-41
2021/04/11 10:02:04;;;;;;;11.73;7.72;;;;;;;31.22;10.00;95027.81;5074716;28;20279;-40
2021/04/11 10:04:39;;;;;;;9.40;7.28;;;;;;;30.91;9.56;95037.75;5074867;28;20048;-41
2021/04/11 10:07:28;;;;;;;9.73;7.05;;;;;;;31.98;10.15;95039.25;5078543;28;20383;-41
2021/04/11 10:10:23;;;;;;;8.27;6.60;;;;;;;31.73;9.85;95034.94;5060611;28;20447;-43
2021/04/11 10:13:17;;;;;;;9.35;7.05;;;;;;;32.04;9.23;95034.94;5088986;28;20056;-42
2021/04/11 10:15:58;;;;;;;9.00;6.40;;;;;;;33.03;8.92;95041.50;5078310;28;20370;-41
2021/04/11 10:18:43;;;;;;;10.25;5.45;;;;;;;32.77;8.18;95037.66;5061993;28;20052;-42
2021/04/11 10:22:08;;;;;;;8.65;5.18;;;;;;;31.78;8.13;95029.09;5069495;28;20443;-43
2021/04/11 10:25:03;;;;;;;5.88;4.55;;;;;;;33.04;7.88;95032.19;4996764;28;20046;-47
2021/04/11 10:27:56;;;;;;;6.22;4.30;;;;;;;31.44;8.67;95037.22;4996864;28;20054;-42
2021/04/11 10:30:23;;;;;;;;;;;;;;;31.81;8.39;95030.22;5096335;28;20048;-43
2021/04/11 10:33:00;;;;;;;6.90;4.85;;;;;;;32.07;8.41;95026.00;5074165;28;19916;-44
2021/04/11 10:35:35;;;;;;;5.05;4.05;;;;;;;35.72;5.57;95037.69;5060715;28;20044;-42
2021/04/11 10:38:07;;;;;;;6.53;4.03;;;;;;;33.76;6.52;95025.41;5097338;28;20446;-42
2021/04/11 10:41:08;;;;;;;9.00;4.20;;;;;;;33.52;7.41;95022.78;5098531;28;20059;-42
2021/04/11 10:43:36;;;;;;;5.43;3.70;;;;;;;31.72;8.21;95011.03;5085514;28;20044;-44
2021/04/11 10:46:11;;;;;;;7.75;4.05;;;;;;;31.00;9.08;95016.47;5077836;28;20041;-43
2021/04/11 10:48:56;;;;;;;5.28;4.15;;;;;;;31.19;9.14;95007.78;5077801;28;20059;-42
2021/04/11 10:51:51;;;;;;;5.90;4.15;;;;;;;30.56;10.03;95015.31;5088235;28;20063;-43
2021/04/11 10:54:39;;;;;;;8.75;4.85;;;;;;;30.21;11.01;94999.41;5082539;28;20102;-44
2021/04/11 10:57:56;;;;;;;8.38;4.65;;;;;;;32.10;8.94;95007.03;5090204;28;20504;-43
2021/04/11 11:00:35;;;;;;;7.07;4.50;;;;;;;32.12;8.16;95006.63;5067020;28;20052;-41
2021/04/11 11:03:17;;;;;;;10.15;5.05;;;;;;;31.34;9.59;95013.03;5062960;28;20048;-42
2021/04/11 11:06:06;;;;;;;5.20;3.97;;;;;;;32.03;7.61;95009.06;5097642;28;20050;-43
2021/04/11 11:08:39;;;;;;;9.48;4.60;;;;;;;32.96;7.52;95009.13;5079339;28;20052;-43
2021/04/11 11:11:41;;;;;;;5.10;3.97;;;;;;;31.01;9.10;95004.50;5097507;28;20055;-44
2021/04/11 11:14:12;;;;;;;6.55;3.40;;;;;;;33.80;6.65;95009.81;5057279;28;20367;-42
2021/04/11 11:17:10;;;;;;;11.23;7.97;;;;;;;30.49;9.24;95001.88;5076704;28;20044;-43
2021/04/11 11:19:51;;;;;;;21.20;14.10;;;;;;;30.12;10.44;95001.78;5077050;28;20343;-42
2021/04/11 11:22:56;;;;;;;38.13;29.70;;;;;;;32.07;8.11;94997.03;5094611;28;20044;-42
2021/04/11 11:25:47;;;;;;;12.60;7.57;;;;;;;30.56;10.14;94988.31;5077090;28;20052;-42
2021/04/11 11:28:50;;;;;;;8.60;5.47;;;;;;;30.34;10.02;94987.72;5077130;28;20041;-42
2021/04/11 11:31:26;;;;;;;6.63;4.20;;;;;;;30.63;10.35;94988.28;5059448;28;20048;-42
2021/04/11 11:33:58;;;;;;;6.68;3.90;;;;;;;30.74;10.15;94973.94;5076606;28;20052;-42
2021/04/11 11:36:36;;;;;;;5.10;3.60;;;;;;;30.36;10.57;94969.22;5058888;28;20048;-42
2021/04/11 11:39:06;;;;;;;5.47;3.75;;;;;;;31.26;8.94;94963.75;5076716;28;20048;-42
2021/04/11 11:42:12;;;;;;;6.80;4.57;;;;;;;30.55;9.56;94959.81;5076903;28;20371;-43
2021/04/11 11:45:03;;;;;;;8.80;4.03;;;;;;;31.03;8.85;94964.38;5044653;28;20044;-42
2021/04/11 11:47:41;;;;;;;8.63;3.88;;;;;;;33.97;5.86;94966.06;5078886;28;20056;-41
2021/04/11 11:50:27;;;;;;;6.88;3.65;;;;;;;30.46;9.17;94959.53;5063386;28;20053;-42
2021/04/11 11:53:11;;;;;;;4.80;3.53;;;;;;;31.03;9.15;94953.56;5059650;28;20060;-41
2021/04/11 11:55:42;;;;;;;7.45;3.97;;;;;;;30.08;10.56;94943.25;5058871;28;20348;-46
2021/04/11 11:58:20;;;;;;;5.68;3.30;;;;;;;30.49;9.94;94947.94;5078477;28;20048;-43
2021/04/11 12:00:59;;;;;;;5.95;4.03;;;;;;;30.24;10.52;94944.69;5064965;28;20044;-43
2021/04/11 12:03:36;;;;;;;5.57;3.70;;;;;;;30.28;10.27;94942.72;5042009;28;20055;-44
2021/04/11 12:06:06;;;;;;;4.95;3.70;;;;;;;30.74;9.33;94945.03;5059742;28;20048;-43
2021/04/11 12:08:51;;;;;;;5.65;3.80;;;;;;;30.96;9.12;94938.19;5076224;28;20119;-41
2021/04/11 12:11:25;;;;;;;4.78;3.53;;;;;;;30.22;9.51;94936.25;5076225;28;20052;-43
2021/04/11 12:14:24;;;;;;;7.80;3.50;;;;;;;30.07;9.61;94925.56;5087562;28;20056;-42
2021/04/11 12:17:19;;;;;;;5.45;3.63;;;;;;;30.34;8.90;94933.03;5080331;28;20052;-42
2021/04/11 12:19:58;;;;;;;5.70;3.92;;;;;;;30.45;9.30;94932.94;5081139;28;20366;-42
2021/04/11 12:22:44;;;;;;;5.60;3.55;;;;;;;29.94;9.07;94929.13;5059113;28;20470;-42
2021/04/11 12:25:19;;;;;;;5.63;3.72;;;;;;;31.93;8.15;94932.34;5042106;28;20061;-42
2021/04/11 12:27:46;;;;;;;5.97;3.67;;;;;;;32.77;7.62;94931.31;5093035;28;20174;-44